Time;durP1;ratioP1;P1;durP2;ratioP2;P2;SDS_P1;SDS_P2;PMS_P1;PMS_P2;Temp;Humidity;BMP_temperature;BMP_pressure;BME280_temperature;BME280_humidity;BME280_pressure;Samples;Min_cycle;Max_cycle;Signal;HPM_P1;HPM_P2
2022/08/28 00:00:33;;;;;;;14.35;2.97;;;19.50;99.90;;;;;;5054158;28;20069;-76
2022/08/28 00:02:59;;;;;;;7.68;2.90;;;19.50;99.90;;;;;;5055724;28;20473;-75
2022/08/28 00:05:28;;;;;;;16.67;4.32;;;19.50;99.90;;;;;;5054327;28;20037;-75
2022/08/28 00:07:54;;;;;;;17.10;4.07;;;19.40;99.90;;;;;;5053797;28;20017;-76
2022/08/28 00:10:22;;;;;;;11.68;3.60;;;19.30;99.90;;;;;;5055538;28;20388;-75
2022/08/28 00:12:51;;;;;;;11.77;3.47;;;19.50;99.90;;;;;;5055003;28;20516;-75
2022/08/28 00:15:21;;;;;;;7.00;3.20;;;19.30;99.90;;;;;;5054207;28;20036;-75
2022/08/28 00:17:48;;;;;;;11.30;3.42;;;19.30;99.90;;;;;;5056982;28;20497;-75
2022/08/28 00:20:17;;;;;;;13.68;3.75;;;19.40;99.90;;;;;;5055258;28;20032;-75
2022/08/28 00:22:43;;;;;;;14.95;3.58;;;19.20;99.90;;;;;;5055172;28;20020;-76
2022/08/28 00:25:10;;;;;;;18.67;4.00;;;19.20;99.90;;;;;;5054337;28;20029;-76
2022/08/28 00:27:51;;;;;;;12.25;3.67;;;19.10;99.90;;;;;;5055006;28;20040;-77
2022/08/28 00:30:26;;;;;;;11.43;3.83;;;19.00;99.90;;;;;;5055044;28;20025;-76
2022/08/28 00:32:54;;;;;;;14.93;4.00;;;19.10;99.90;;;;;;5053320;28;20045;-75
2022/08/28 00:35:22;;;;;;;10.55;3.95;;;19.20;99.90;;;;;;5054879;28;20382;-75
2022/08/28 00:37:49;;;;;;;12.40;3.65;;;19.00;99.90;;;;;;5054892;28;20033;-75
2022/08/28 00:40:20;;;;;;;9.57;3.70;;;18.90;99.90;;;;;;5054701;28;20028;-75
2022/08/28 00:42:46;;;;;;;19.42;3.80;;;19.00;99.90;;;;;;5052750;28;20028;-76
2022/08/28 00:45:17;;;;;;;9.52;3.83;;;19.10;99.90;;;;;;5053447;28;20118;-75
2022/08/28 00:47:44;;;;;;;10.25;4.25;;;19.10;99.90;;;;;;5054557;28;20036;-75
2022/08/28 00:50:16;;;;;;;11.35;4.03;;;19.00;99.90;;;;;;5053567;28;20017;-75
2022/08/28 00:52:48;;;;;;;21.00;4.03;;;18.90;99.90;;;;;;5054239;28;20127;-75
2022/08/28 00:55:21;;;;;;;15.05;4.47;;;19.00;99.90;;;;;;5052854;28;20052;-74
2022/08/28 00:57:53;;;;;;;19.27;4.65;;;19.00;99.90;;;;;;5053037;28;20052;-75
2022/08/28 01:00:30;;;;;;;16.80;4.78;;;18.70;99.90;;;;;;5053591;28;20037;-75
2022/08/28 01:02:57;;;;;;;13.63;4.55;;;18.80;99.90;;;;;;5053336;28;20033;-74
2022/08/28 01:05:24;;;;;;;9.60;3.70;;;18.90;99.90;;;;;;5054297;28;20021;-75
2022/08/28 01:07:51;;;;;;;12.85;4.20;;;18.80;99.90;;;;;;5054259;28;20449;-74
2022/08/28 01:10:20;;;;;;;15.40;4.57;;;18.80;99.90;;;;;;5053752;28;20025;-74
2022/08/28 01:12:48;;;;;;;18.00;4.47;;;18.80;99.90;;;;;;5054348;28;20033;-75
2022/08/28 01:15:19;;;;;;;13.45;4.20;;;18.70;99.90;;;;;;5053895;28;20036;-75
2022/08/28 01:17:52;;;;;;;11.65;4.50;;;18.70;99.90;;;;;;5054129;28;20053;-74
2022/08/28 01:20:23;;;;;;;11.15;4.05;;;18.80;99.90;;;;;;5053785;28;20025;-75
2022/08/28 01:23:01;;;;;;;22.25;4.13;;;18.80;99.90;;;;;;5053969;28;20033;-74
2022/08/28 01:25:32;;;;;;;20.42;4.88;;;18.70;99.90;;;;;;5053661;28;20029;-74
2022/08/28 01:27:59;;;;;;;17.73;4.55;;;18.60;99.90;;;;;;5054183;28;20109;-75
2022/08/28 01:30:25;;;;;;;16.27;4.32;;;18.60;99.90;;;;;;5053565;28;20024;-75
2022/08/28 01:32:54;;;;;;;16.08;4.47;;;18.60;99.90;;;;;;5053744;28;20060;-75
2022/08/28 01:35:24;;;;;;;15.70;4.55;;;18.60;99.90;;;;;;5054047;28;20025;-75
2022/08/28 01:37:51;;;;;;;12.13;3.80;;;18.70;99.90;;;;;;5051398;28;20036;-75
2022/08/28 01:40:26;;;;;;;11.65;4.05;;;18.70;99.90;;;;;;5053616;28;20032;-75
2022/08/28 01:42:51;;;;;;;19.98;4.45;;;18.80;99.90;;;;;;5053501;28;20093;-74
2022/08/28 01:45:20;;;;;;;13.85;4.45;;;18.90;99.90;;;;;;5052440;28;20151;-74
2022/08/28 01:47:47;;;;;;;14.48;4.43;;;18.70;99.90;;;;;;5053130;28;20104;-75
2022/08/28 01:50:15;;;;;;;19.85;4.50;;;18.70;99.90;;;;;;5053097;28;20017;-75
2022/08/28 01:52:41;;;;;;;14.35;3.70;;;18.80;99.90;;;;;;5051964;28;20037;-74
2022/08/28 01:55:08;;;;;;;14.93;4.43;;;18.40;99.90;;;;;;5053493;28;20029;-75
2022/08/28 01:57:34;;;;;;;11.13;3.80;;;18.50;99.90;;;;;;5052360;28;20052;-74
2022/08/28 02:00:00;;;;;;;14.68;3.60;;;18.50;99.90;;;;;;5053399;28;20044;-74
2022/08/28 02:02:26;;;;;;;11.05;4.32;;;18.50;99.90;;;;;;5053338;28;20027;-75
2022/08/28 02:04:52;;;;;;;16.98;4.63;;;18.40;99.90;;;;;;5053179;28;20025;-75
2022/08/28 02:07:18;;;;;;;20.65;4.32;;;18.50;99.90;;;;;;5052953;28;20016;-74
2022/08/28 02:09:44;;;;;;;13.07;4.70;;;18.50;99.90;;;;;;5052129;28;20047;-75
2022/08/28 02:12:10;;;;;;;13.95;4.30;;;18.60;99.90;;;;;;5053281;28;20032;-75
2022/08/28 02:14:37;;;;;;;10.43;3.75;;;18.50;99.90;;;;;;5052932;28;20112;-74
2022/08/28 02:17:03;;;;;;;17.65;4.32;;;18.50;99.90;;;;;;5051932;28;20033;-75
2022/08/28 02:19:31;;;;;;;16.83;3.97;;;18.50;99.90;;;;;;5053116;28;20041;-77
2022/08/28 02:21:56;;;;;;;11.52;3.78;;;18.60;99.90;;;;;;5067978;28;20025;-77
2022/08/28 02:24:22;;;;;;;14.20;4.05;;;18.70;99.90;;;;;;5053007;28;20033;-77
2022/08/28 02:26:48;;;;;;;15.90;4.03;;;18.60;99.90;;;;;;5053235;28;20029;-77
2022/08/28 02:29:14;;;;;;;14.57;3.88;;;18.50;99.90;;;;;;5052669;28;20053;-77
2022/08/28 02:31:40;;;;;;;13.40;3.15;;;18.50;99.90;;;;;;5055092;28;20414;-75
2022/08/28 02:34:06;;;;;;;10.98;3.42;;;18.50;99.90;;;;;;5054658;28;20033;-76
2022/08/28 02:36:32;;;;;;;12.85;3.50;;;18.50;99.90;;;;;;5051398;28;20070;-78
2022/08/28 02:38:58;;;;;;;11.18;3.55;;;18.60;99.90;;;;;;5052546;28;20400;-75
2022/08/28 02:41:24;;;;;;;13.07;4.60;;;18.50;99.90;;;;;;5051451;28;20469;-77
2022/08/28 02:43:51;;;;;;;13.15;3.83;;;18.80;99.90;;;;;;5052493;28;20389;-78
2022/08/28 02:46:17;;;;;;;12.05;3.58;;;18.70;99.90;;;;;;5052872;28;20029;-77
2022/08/28 02:48:43;;;;;;;14.50;3.72;;;18.50;99.90;;;;;;5051940;28;20430;-77
2022/08/28 02:51:12;;;;;;;13.65;3.20;;;18.70;99.90;;;;;;5052132;28;20044;-75
2022/08/28 02:53:38;;;;;;;17.85;3.53;;;18.60;99.90;;;;;;5052456;28;20044;-77
2022/08/28 02:56:05;;;;;;;11.98;3.28;;;18.50;99.90;;;;;;5052247;28;20545;-76
2022/08/28 02:58:31;;;;;;;8.13;3.15;;;18.50;99.90;;;;;;5052402;28;20028;-76
2022/08/28 03:01:00;;;;;;;16.15;4.10;;;18.50;99.90;;;;;;5051272;28;20029;-76
2022/08/28 03:03:29;;;;;;;20.77;3.72;;;18.50;99.90;;;;;;5052326;28;20029;-74
2022/08/28 03:05:56;;;;;;;9.88;3.05;;;18.30;99.90;;;;;;5051017;28;20535;-76
2022/08/28 03:08:23;;;;;;;15.52;3.47;;;18.30;99.90;;;;;;5052097;28;20029;-76
2022/08/28 03:10:50;;;;;;;13.48;4.32;;;18.50;99.90;;;;;;5052195;28;20022;-78
2022/08/28 03:13:17;;;;;;;10.68;3.75;;;18.50;99.90;;;;;;5052167;28;20028;-78
2022/08/28 03:15:43;;;;;;;14.48;3.47;;;18.50;99.90;;;;;;5052045;28;20025;-77
2022/08/28 03:18:11;;;;;;;16.08;3.97;;;18.60;99.90;;;;;;5052658;28;20401;-77
2022/08/28 03:20:36;;;;;;;22.73;4.00;;;18.40;99.90;;;;;;5051735;28;20025;-76
2022/08/28 03:25:47;;;;;;;12.57;3.35;;;18.40;99.90;;;;;;5051836;28;20025;-78
2022/08/28 03:28:13;;;;;;;10.55;3.20;;;18.60;99.90;;;;;;5052233;28;20082;-77
2022/08/28 03:30:39;;;;;;;17.25;4.22;;;18.60;99.90;;;;;;5034064;28;20458;-77
2022/08/28 03:33:04;;;;;;;15.55;3.80;;;18.40;99.90;;;;;;5052145;28;20076;-74
2022/08/28 03:35:31;;;;;;;16.73;3.40;;;18.50;99.90;;;;;;5051231;28;20053;-77
2022/08/28 03:37:56;;;;;;;14.18;3.55;;;18.60;99.90;;;;;;5052135;28;20060;-78
2022/08/28 03:40:23;;;;;;;14.32;3.35;;;18.50;99.90;;;;;;5052128;28;20060;-78
2022/08/28 03:42:49;;;;;;;15.60;3.53;;;18.30;99.90;;;;;;5051623;28;20017;-78
2022/08/28 03:45:15;;;;;;;13.60;3.63;;;18.30;99.90;;;;;;5051684;28;20037;-76
2022/08/28 03:47:41;;;;;;;19.23;3.90;;;18.10;99.90;;;;;;5052210;28;20112;-76
2022/08/28 03:50:10;;;;;;;22.77;4.28;;;18.00;99.90;;;;;;5051406;28;20369;-75
2022/08/28 03:52:40;;;;;;;13.38;3.15;;;18.00;99.90;;;;;;5051674;28;20392;-77
2022/08/28 03:55:09;;;;;;;14.05;3.55;;;18.00;99.90;;;;;;5050759;28;20017;-75
2022/08/28 03:57:35;;;;;;;9.95;3.47;;;18.20;99.90;;;;;;5051490;28;20084;-74
2022/08/28 04:00:05;;;;;;;17.23;3.72;;;18.30;99.90;;;;;;5053597;28;20024;-76
2022/08/28 04:02:41;;;;;;;16.52;4.00;;;18.20;99.90;;;;;;5055122;28;20071;-75
2022/08/28 04:05:08;;;;;;;10.98;3.13;;;18.10;99.90;;;;;;5054594;28;20025;-74
2022/08/28 04:07:34;;;;;;;17.23;3.13;;;18.20;99.90;;;;;;5055533;28;20033;-76
2022/08/28 04:10:00;;;;;;;19.75;4.45;;;18.10;99.90;;;;;;5054205;28;20044;-76
2022/08/28 04:12:26;;;;;;;21.15;3.63;;;18.10;99.90;;;;;;5053641;28;20447;-75
2022/08/28 04:14:53;;;;;;;13.70;3.45;;;18.30;99.90;;;;;;5054050;28;20029;-76
2022/08/28 04:17:20;;;;;;;19.50;3.17;;;18.20;99.90;;;;;;5054962;28;20166;-76
2022/08/28 04:19:45;;;;;;;13.43;3.20;;;18.20;99.90;;;;;;5055816;28;20032;-76
2022/08/28 04:22:11;;;;;;;12.27;3.10;;;18.00;99.90;;;;;;5054785;28;20021;-75
2022/08/28 04:24:37;;;;;;;11.70;3.85;;;17.80;99.90;;;;;;5054880;28;20379;-74
2022/08/28 04:27:03;;;;;;;14.68;3.50;;;17.90;99.90;;;;;;5053691;28;20036;-74
2022/08/28 04:29:30;;;;;;;16.05;3.38;;;17.60;99.90;;;;;;5053987;28;20036;-76
2022/08/28 04:31:57;;;;;;;11.30;3.13;;;17.60;99.90;;;;;;5053160;28;20079;-77
2022/08/28 04:34:23;;;;;;;14.05;3.58;;;17.60;99.90;;;;;;5054625;28;20029;-76
2022/08/28 04:36:52;;;;;;;15.30;3.83;;;17.60;99.90;;;;;;5055040;28;20041;-77
2022/08/28 04:39:18;;;;;;;8.93;3.22;;;17.50;99.90;;;;;;5054903;28;20028;-76
2022/08/28 04:41:44;;;;;;;15.60;4.20;;;17.60;99.90;;;;;;5053705;28;20040;-75
2022/08/28 04:44:10;;;;;;;13.38;3.58;;;17.60;99.90;;;;;;5054745;28;20028;-76
2022/08/28 04:46:36;;;;;;;10.93;3.03;;;17.60;99.90;;;;;;5052875;28;20021;-76
2022/08/28 04:49:03;;;;;;;12.25;3.20;;;17.60;99.90;;;;;;5054891;28;20378;-76
2022/08/28 04:51:29;;;;;;;15.85;3.30;;;17.70;99.90;;;;;;5052766;28;20025;-76
2022/08/28 04:53:57;;;;;;;17.60;4.25;;;17.60;99.90;;;;;;5053186;28;20052;-76
2022/08/28 04:56:23;;;;;;;16.85;3.55;;;17.50;99.90;;;;;;5054416;28;20025;-75
2022/08/28 04:58:49;;;;;;;15.85;3.65;;;17.60;99.90;;;;;;5054747;28;20029;-76
2022/08/28 05:01:20;;;;;;;15.77;4.03;;;17.40;99.90;;;;;;5054023;28;20497;-77
2022/08/28 05:03:47;;;;;;;15.38;3.67;;;17.40;99.90;;;;;;5036508;28;20040;-76
2022/08/28 05:06:15;;;;;;;14.73;4.22;;;17.30;99.90;;;;;;5053374;28;20064;-76
2022/08/28 05:08:41;;;;;;;13.77;3.35;;;17.40;99.90;;;;;;5054468;28;20081;-76
2022/08/28 05:11:20;;;;;;;23.52;3.90;;;17.40;99.90;;;;;;5053898;28;20032;-76
2022/08/28 05:13:47;;;;;;;17.65;3.33;;;17.50;99.90;;;;;;5041400;28;20385;-76
2022/08/28 05:16:14;;;;;;;15.38;4.18;;;17.60;99.90;;;;;;5053946;28;20033;-76
2022/08/28 05:18:41;;;;;;;16.67;3.60;;;17.70;99.90;;;;;;5036207;28;20043;-75
2022/08/28 05:21:19;;;;;;;15.25;3.67;;;17.60;99.90;;;;;;5054490;28;20024;-76
2022/08/28 05:23:45;;;;;;;15.00;3.42;;;17.70;99.90;;;;;;5054051;28;20025;-75
2022/08/28 05:26:16;;;;;;;19.98;3.80;;;17.70;99.90;;;;;;5053616;28;20374;-76
2022/08/28 05:28:43;;;;;;;16.10;3.65;;;17.70;99.90;;;;;;5053628;28;20100;-75
2022/08/28 05:31:11;;;;;;;19.23;3.40;;;17.90;99.90;;;;;;5053898;28;20029;-75
2022/08/28 05:33:37;;;;;;;12.25;3.83;;;17.90;99.90;;;;;;5054103;28;20029;-76
2022/08/28 05:36:05;;;;;;;16.50;3.85;;;17.80;99.90;;;;;;5053969;28;20071;-76
2022/08/28 05:38:33;;;;;;;20.08;3.53;;;17.70;99.90;;;;;;5053727;28;20019;-76
2022/08/28 05:41:00;;;;;;;13.90;3.70;;;17.70;99.90;;;;;;5052493;28;20091;-75
2022/08/28 05:43:26;;;;;;;14.30;4.32;;;17.80;99.90;;;;;;5053762;28;20052;-74
2022/08/28 05:46:01;;;;;;;18.13;4.13;;;17.70;99.90;;;;;;5053340;28;20469;-75
2022/08/28 05:48:30;;;;;;;14.95;4.53;;;17.60;99.90;;;;;;5050878;28;20100;-75
2022/08/28 05:50:58;;;;;;;15.45;3.97;;;17.40;99.90;;;;;;5053370;28;20775;-75
2022/08/28 05:53:24;;;;;;;13.02;4.40;;;17.40;99.90;;;;;;5051969;28;20041;-76
2022/08/28 05:55:50;;;;;;;11.35;3.85;;;17.50;99.90;;;;;;5053303;28;20076;-75
2022/08/28 05:58:28;;;;;;;16.35;3.58;;;17.60;99.90;;;;;;5053097;28;20470;-75
2022/08/28 06:01:02;;;;;;;18.05;4.28;;;17.60;99.90;;;;;;5053064;28;20021;-75
2022/08/28 06:03:28;;;;;;;17.45;3.85;;;17.70;99.90;;;;;;5052058;28;20021;-76
2022/08/28 06:05:54;;;;;;;20.27;5.32;;;17.90;99.90;;;;;;5053388;28;20032;-77
2022/08/28 06:08:21;;;;;;;18.88;4.45;;;18.00;99.90;;;;;;5053284;28;20462;-76
2022/08/28 06:10:48;;;;;;;24.70;4.35;;;18.20;99.90;;;;;;5053314;28;20431;-76
2022/08/28 06:13:14;;;;;;;22.20;4.05;;;18.40;99.90;;;;;;5052389;28;20155;-77
2022/08/28 06:15:42;;;;;;;13.25;3.78;;;18.30;99.90;;;;;;5053191;28;20083;-76
2022/08/28 06:18:07;;;;;;;17.27;3.58;;;18.10;99.90;;;;;;5053437;28;20432;-77
2022/08/28 06:20:42;;;;;;;21.42;3.78;;;18.20;99.90;;;;;;5052810;28;20551;-77
2022/08/28 06:23:09;;;;;;;14.23;3.97;;;18.50;99.90;;;;;;5052921;28;20386;-77
2022/08/28 06:25:40;;;;;;;19.63;4.60;;;18.60;99.90;;;;;;5052669;28;20029;-77
2022/08/28 06:28:06;;;;;;;19.65;4.00;;;18.60;99.90;;;;;;5052789;28;20458;-77
2022/08/28 06:30:36;;;;;;;11.43;3.92;;;18.80;99.90;;;;;;5051510;28;20040;-77
2022/08/28 06:33:03;;;;;;;12.10;3.80;;;18.90;99.90;;;;;;5052951;28;20045;-78
2022/08/28 06:35:30;;;;;;;19.00;3.97;;;18.80;99.90;;;;;;5052962;28;20028;-77
2022/08/28 06:38:00;;;;;;;45.55;5.10;;;18.80;99.90;;;;;;5051493;28;20461;-77
2022/08/28 06:40:26;;;;;;;16.83;3.72;;;18.80;99.90;;;;;;5052663;28;20028;-78
2022/08/28 06:42:52;;;;;;;12.35;3.55;;;18.80;99.90;;;;;;5052471;28;20488;-78
2022/08/28 06:45:18;;;;;;;14.13;3.80;;;18.90;99.90;;;;;;5052641;28;20044;-77
2022/08/28 06:47:46;;;;;;;14.73;4.22;;;18.80;99.90;;;;;;5052502;28;20040;-77
2022/08/28 06:50:12;;;;;;;12.63;3.28;;;18.80;99.90;;;;;;5051748;28;20035;-78
2022/08/28 06:52:37;;;;;;;16.73;3.55;;;18.80;99.90;;;;;;5052482;28;20393;-78
2022/08/28 06:55:03;;;;;;;13.80;3.88;;;18.80;99.90;;;;;;5052459;28;20424;-78
2022/08/28 06:57:30;;;;;;;10.13;4.00;;;18.80;99.90;;;;;;5052568;28;20379;-78
2022/08/28 06:59:57;;;;;;;16.88;4.00;;;18.90;99.90;;;;;;5052317;28;20908;-78
2022/08/28 07:02:23;;;;;;;11.73;3.40;;;19.00;99.90;;;;;;5052521;28;20458;-77
2022/08/28 07:04:53;;;;;;;11.15;3.25;;;19.10;99.90;;;;;;5037413;28;20019;-78
2022/08/28 07:07:22;;;;;;;10.00;3.47;;;18.90;99.90;;;;;;5061367;28;20033;-78
2022/08/28 07:09:47;;;;;;;10.88;3.30;;;18.80;99.90;;;;;;5047096;28;20036;-78
2022/08/28 07:12:14;;;;;;;10.93;3.70;;;18.80;99.90;;;;;;5049342;28;20036;-78
2022/08/28 07:14:40;;;;;;;36.38;4.15;;;18.70;99.90;;;;;;5051522;28;20100;-78
2022/08/28 07:17:06;;;;;;;14.80;4.20;;;18.80;99.90;;;;;;5050594;28;20120;-78
2022/08/28 07:19:33;;;;;;;17.05;4.03;;;19.10;99.90;;;;;;5051635;28;20013;-78
2022/08/28 07:21:59;;;;;;;22.23;4.60;;;19.20;99.90;;;;;;5051642;28;20037;-79
2022/08/28 07:24:27;;;;;;;16.48;4.05;;;19.30;99.90;;;;;;5051772;28;20150;-78
2022/08/28 07:26:54;;;;;;;18.20;3.72;;;19.50;99.90;;;;;;5051918;28;20036;-78
2022/08/28 07:29:20;;;;;;;22.52;5.35;;;19.40;99.90;;;;;;5050618;28;20028;-76
2022/08/28 07:31:50;;;;;;;13.75;3.45;;;19.50;99.90;;;;;;5051943;28;20028;-78
2022/08/28 07:34:18;;;;;;;10.80;3.10;;;19.50;99.90;;;;;;5046276;28;20021;-79
2022/08/28 07:36:44;;;;;;;12.80;3.40;;;19.70;99.90;;;;;;5053928;28;20060;-78
2022/08/28 07:39:12;;;;;;;12.93;3.33;;;20.00;99.90;;;;;;5052665;28;20517;-78
2022/08/28 07:41:41;;;;;;;15.60;3.15;;;20.00;99.90;;;;;;5052177;28;20025;-79
2022/08/28 07:46:56;;;;;;;20.83;4.35;;;20.40;99.90;;;;;;5053682;28;20029;-79
2022/08/28 07:49:23;;;;;;;10.02;3.03;;;20.50;99.90;;;;;;5055342;28;20465;-80
2022/08/28 07:51:49;;;;;;;17.55;3.55;;;20.70;99.90;;;;;;5055151;28;20122;-79
2022/08/28 07:54:16;;;;;;;25.85;3.83;;;21.00;99.90;;;;;;5053151;28;20059;-79
2022/08/28 07:56:42;;;;;;;13.07;3.28;;;21.30;99.90;;;;;;5042098;28;20118;-79
2022/08/28 07:59:09;;;;;;;11.85;3.25;;;21.30;99.90;;;;;;5056264;28;20405;-78
2022/08/28 08:01:40;;;;;;;11.70;3.28;;;21.00;99.90;;;;;;5054189;28;20110;-79
2022/08/28 08:04:08;;;;;;;10.80;3.20;;;21.20;99.90;;;;;;5067749;28;20413;-80
2022/08/28 08:06:35;;;;;;;11.55;3.45;;;21.20;99.90;;;;;;5044305;28;20031;-79
2022/08/28 08:09:03;;;;;;;11.60;3.17;;;20.90;99.90;;;;;;5052216;28;20055;-79
2022/08/28 08:11:29;;;;;;;13.45;3.38;;;21.30;99.90;;;;;;5054462;28;20116;-79
2022/08/28 08:13:56;;;;;;;17.60;3.20;;;21.20;99.90;;;;;;5054485;28;20037;-80
2022/08/28 08:16:24;;;;;;;19.15;2.83;;;21.20;99.90;;;;;;5053074;28;20024;-80
2022/08/28 08:18:51;;;;;;;11.38;3.10;;;21.30;99.90;;;;;;5055083;28;20586;-80
2022/08/28 08:21:19;;;;;;;14.35;3.40;;;21.70;99.90;;;;;;5054555;28;20021;-80
2022/08/28 08:23:45;;;;;;;12.27;3.08;;;21.80;99.90;;;;;;5054103;28;20053;-79
2022/08/28 08:26:15;;;;;;;12.30;3.47;;;21.70;99.90;;;;;;5054219;28;20036;-80
2022/08/28 08:28:42;;;;;;;7.55;2.30;;;21.80;99.90;;;;;;5054188;28;20102;-79
2022/08/28 08:31:17;;;;;;;10.15;3.10;;;21.70;99.90;;;;;;5053565;28;20021;-79
2022/08/28 08:33:45;;;;;;;15.13;2.70;;;22.00;99.90;;;;;;5054303;28;20113;-80
2022/08/28 08:36:13;;;;;;;15.30;2.95;;;21.80;99.90;;;;;;5051208;28;20529;-80
2022/08/28 08:38:40;;;;;;;15.88;2.75;;;22.00;99.90;;;;;;5053784;28;20124;-79
2022/08/28 08:41:21;;;;;;;12.73;2.50;;;22.00;99.90;;;;;;5053917;28;20078;-81
2022/08/28 08:44:12;;;;;;;8.45;2.20;;;22.20;99.90;;;;;;5054195;28;20393;-80
2022/08/28 08:47:18;;;;;;;12.73;2.65;;;21.90;99.90;;;;;;5049676;28;20139;-80
2022/08/28 08:49:59;;;;;;;6.55;2.40;;;22.10;99.90;;;;;;5049079;28;20567;-81
2022/08/28 08:53:01;;;;;;;12.95;2.67;;;22.20;99.50;;;;;;5047759;28;20045;-78
2022/08/28 08:55:40;;;;;;;12.50;2.90;;;22.50;99.70;;;;;;5049222;28;20599;-79
2022/08/28 08:58:22;;;;;;;14.95;2.78;;;22.80;99.10;;;;;;5052943;28;20126;-78
2022/08/28 09:01:03;;;;;;;11.15;2.70;;;22.60;99.00;;;;;;5053011;28;20474;-79
2022/08/28 09:03:53;;;;;;;10.88;2.70;;;22.90;98.70;;;;;;5053261;28;20406;-79
2022/08/28 09:06:31;;;;;;;10.65;2.65;;;22.70;98.70;;;;;;5052527;28;20079;-80
2022/08/28 09:09:00;;;;;;;7.53;2.40;;;23.00;98.60;;;;;;5052377;28;20037;-78
2022/08/28 09:11:58;;;;;;;9.82;2.55;;;22.90;98.60;;;;;;5052836;28;20071;-78
2022/08/28 09:14:49;;;;;;;11.30;2.25;;;23.30;98.40;;;;;;5048894;28;20563;-78
2022/08/28 09:17:18;;;;;;;10.88;3.45;;;23.60;97.40;;;;;;5052052;28;20390;-78
2022/08/28 09:19:44;;;;;;;11.20;2.63;;;23.20;97.90;;;;;;5052103;28;20079;-78
2022/08/28 09:22:10;;;;;;;13.18;2.95;;;23.40;97.60;;;;;;5049447;28;20047;-78
2022/08/28 09:24:39;;;;;;;15.73;2.80;;;23.70;97.50;;;;;;5052513;28;20029;-78
2022/08/28 09:27:04;;;;;;;15.95;2.13;;;23.80;97.30;;;;;;5053346;28;20025;-78
2022/08/28 09:29:43;;;;;;;14.32;2.58;;;23.90;96.80;;;;;;5067553;28;20044;-77
2022/08/28 09:32:21;;;;;;;14.00;2.33;;;24.40;96.60;;;;;;5053206;28;20072;-78
2022/08/28 09:35:05;;;;;;;10.00;2.70;;;24.70;96.30;;;;;;5052106;28;20029;-79
2022/08/28 09:37:32;;;;;;;9.45;2.50;;;24.90;95.80;;;;;;5052315;28;20469;-77
2022/08/28 09:43:26;;;;;;;11.32;2.70;;;24.80;95.70;;;;;;5050571;28;20060;-78
2022/08/28 09:46:06;;;;;;;18.77;2.25;;;25.00;95.50;;;;;;5053068;28;20060;-78
2022/08/28 09:48:44;;;;;;;13.48;2.63;;;25.20;95.00;;;;;;5053052;28;20071;-82
2022/08/28 09:51:29;;;;;;;10.82;2.85;;;25.20;94.60;;;;;;5053106;28;20087;-82
2022/08/28 09:54:00;;;;;;;14.25;2.30;;;25.00;94.90;;;;;;5052887;28;20108;-81
2022/08/28 09:56:32;;;;;;;8.77;2.65;;;25.00;94.90;;;;;;5051844;28;20036;-81
2022/08/28 09:59:04;;;;;;;6.65;2.17;;;25.20;94.50;;;;;;5052764;28;20495;-79
2022/08/28 10:01:33;;;;;;;15.00;2.70;;;25.10;94.40;;;;;;5053077;28;20064;-81
2022/08/28 10:04:36;;;;;;;11.70;2.70;;;25.20;94.30;;;;;;5051391;28;20370;-81
2022/08/28 10:07:23;;;;;;;13.82;3.40;;;24.60;94.30;;;;;;5052805;28;20487;-79
2022/08/28 10:10:13;;;;;;;10.90;2.55;;;24.80;94.60;;;;;;5038640;28;20025;-79
2022/08/28 10:12:59;;;;;;;6.78;2.25;;;25.00;94.20;;;;;;5050996;28;20378;-80
2022/08/28 10:15:40;;;;;;;7.75;2.20;;;24.80;94.50;;;;;;5040201;28;20051;-79
2022/08/28 10:18:36;;;;;;;8.18;1.88;;;25.10;94.50;;;;;;5051794;28;20047;-79
2022/08/28 10:21:02;;;;;;;9.25;2.42;;;25.20;94.10;;;;;;5039082;28;20033;-77
2022/08/28 10:23:31;;;;;;;9.18;1.90;;;25.90;93.40;;;;;;5051995;28;20056;-80
2022/08/28 10:26:17;;;;;;;6.10;1.92;;;26.30;92.60;;;;;;5051561;28;20055;-80
2022/08/28 10:28:49;;;;;;;14.20;2.85;;;26.20;91.90;;;;;;5051869;28;20029;-79
2022/08/28 10:31:37;;;;;;;6.90;2.47;;;26.00;92.20;;;;;;5051945;28;20037;-79
2022/08/28 10:34:25;;;;;;;5.03;1.98;;;26.10;92.60;;;;;;5050927;28;20044;-80
2022/08/28 10:37:08;;;;;;;5.88;2.55;;;26.00;91.80;;;;;;5043398;28;20509;-80
2022/08/28 10:39:47;;;;;;;5.75;2.15;;;25.80;92.70;;;;;;5048935;28;20062;-82
2022/08/28 10:42:21;;;;;;;12.75;3.38;;;25.80;92.70;;;;;;5051441;28;20402;-81
2022/08/28 10:45:04;;;;;;;9.02;2.30;;;25.90;92.50;;;;;;5050441;28;20033;-81
2022/08/28 10:47:33;;;;;;;7.30;2.15;;;26.50;91.90;;;;;;5051423;28;20028;-78
2022/08/28 10:50:05;;;;;;;6.97;2.00;;;25.70;91.30;;;;;;5065350;28;20021;-79
2022/08/28 10:52:37;;;;;;;9.70;2.10;;;26.40;91.80;;;;;;5051243;28;20087;-79
2022/08/28 10:55:06;;;;;;;5.32;1.85;;;26.80;91.40;;;;;;5051799;28;20036;-79
2022/08/28 10:57:34;;;;;;;7.53;2.80;;;26.90;90.70;;;;;;5051395;28;20032;-79
2022/08/28 11:00:07;;;;;;;12.75;2.17;;;26.40;91.10;;;;;;5051463;28;20028;-78
2022/08/28 11:02:35;;;;;;;9.50;2.45;;;26.50;91.10;;;;;;5052084;28;20018;-79
2022/08/28 11:05:02;;;;;;;7.03;1.90;;;27.10;90.80;;;;;;5050250;28;20086;-78
2022/08/28 11:07:34;;;;;;;10.52;2.00;;;27.60;90.20;;;;;;5050933;28;20424;-78
2022/08/28 11:10:29;;;;;;;11.18;1.65;;;28.10;89.10;;;;;;5051003;28;20033;-79
2022/08/28 11:12:55;;;;;;;7.57;1.85;;;28.40;87.60;;;;;;5060529;28;20044;-81
2022/08/28 11:15:27;;;;;;;8.35;1.98;;;27.70;88.50;;;;;;5051152;28;20079;-80
2022/08/28 11:18:12;;;;;;;8.68;1.75;;;27.80;88.70;;;;;;5051777;28;20044;-78
2022/08/28 11:20:58;;;;;;;3.20;1.63;;;27.70;89.20;;;;;;5050869;28;20133;-78
2022/08/28 11:23:39;;;;;;;8.02;1.50;;;27.70;89.50;;;;;;5052721;28;20037;-82
2022/08/28 11:26:11;;;;;;;8.40;2.38;;;27.80;88.30;;;;;;5043024;28;20100;-82
2022/08/28 11:28:45;;;;;;;7.25;1.83;;;27.10;89.00;;;;;;5051378;28;20037;-83
2022/08/28 11:31:13;;;;;;;8.68;2.15;;;27.60;89.00;;;;;;5050464;28;20025;-79
2022/08/28 11:33:42;;;;;;;5.95;1.60;;;27.80;88.10;;;;;;5051204;28;20037;-83
2022/08/28 11:36:12;;;;;;;6.93;2.22;;;27.70;88.10;;;;;;5050639;28;20035;-83
2022/08/28 11:38:41;;;;;;;10.63;1.90;;;28.00;87.70;;;;;;5051690;28;20029;-84
2022/08/28 11:41:13;;;;;;;6.60;2.08;;;27.60;89.20;;;;;;5050303;28;20033;-80
2022/08/28 11:43:44;;;;;;;7.55;1.98;;;28.40;87.30;;;;;;5063372;28;20037;-83
2022/08/28 11:46:24;;;;;;;6.47;1.88;;;28.50;86.00;;;;;;5047890;28;20036;-84
2022/08/28 11:48:56;;;;;;;5.45;1.92;;;28.00;86.10;;;;;;5050890;28;20087;-83
2022/08/28 11:51:52;;;;;;;13.18;1.50;;;28.00;86.50;;;;;;5050897;28;20111;-82
2022/08/28 11:54:45;;;;;;;6.68;1.70;;;27.60;87.30;;;;;;5047185;28;20469;-83
2022/08/28 11:57:18;;;;;;;5.00;1.95;;;28.10;86.00;;;;;;5049502;28;20116;-83
2022/08/28 12:00:00;;;;;;;6.43;1.70;;;28.40;86.60;;;;;;5048994;28;20115;-83
2022/08/28 12:02:42;;;;;;;4.75;1.27;;;29.00;85.20;;;;;;5044618;28;20108;-83
2022/08/28 12:05:15;;;;;;;10.70;2.10;;;29.60;84.20;;;;;;5050769;28;20029;-82
2022/08/28 12:07:49;;;;;;;6.20;2.00;;;29.20;83.70;;;;;;5048840;28;20021;-82
2022/08/28 12:10:24;;;;;;;5.47;1.90;;;28.40;85.00;;;;;;5047186;28;20090;-83
2022/08/28 12:12:58;;;;;;;3.60;1.17;;;28.30;85.30;;;;;;5050889;28;20041;-78
2022/08/28 12:15:27;;;;;;;4.85;1.52;;;28.80;84.50;;;;;;5049436;28;20025;-77
2022/08/28 12:18:11;;;;;;;5.93;1.90;;;29.50;83.10;;;;;;5050385;28;20032;-78
2022/08/28 12:21:04;;;;;;;8.55;1.52;;;29.40;81.30;;;;;;5052139;28;20108;-79
2022/08/28 12:23:30;;;;;;;5.38;1.55;;;28.90;82.60;;;;;;5054580;28;20032;-79
2022/08/28 12:26:24;;;;;;;4.10;1.55;;;29.20;82.40;;;;;;5054025;28;20021;-79
2022/08/28 12:29:01;;;;;;;4.80;1.52;;;29.90;81.80;;;;;;5069484;28;20025;-78
2022/08/28 12:34:50;;;;;;;6.70;1.40;;;30.80;80.20;;;;;;5053927;28;20045;-79
2022/08/28 12:37:34;;;;;;;4.13;1.77;;;31.90;79.00;;;;;;5053821;28;20041;-79
2022/08/28 12:40:08;;;;;;;5.28;1.40;;;31.70;78.40;;;;;;5054309;28;20120;-79
2022/08/28 12:42:39;;;;;;;4.03;1.45;;;31.30;78.40;;;;;;5052991;28;20033;-79
2022/08/28 12:45:08;;;;;;;6.72;1.50;;;30.20;77.30;;;;;;5053118;28;20021;-79
2022/08/28 12:47:36;;;;;;;6.00;2.00;;;28.70;78.90;;;;;;5052377;28;20029;-79
2022/08/28 12:50:21;;;;;;;7.55;1.55;;;29.80;78.90;;;;;;5054688;28;20017;-79
2022/08/28 12:52:50;;;;;;;5.65;1.80;;;31.40;77.50;;;;;;5053403;28;20045;-79
2022/08/28 12:55:16;;;;;;;6.80;1.60;;;32.70;76.80;;;;;;5053670;28;20021;-79
2022/08/28 12:57:47;;;;;;;6.10;1.35;;;33.60;74.60;;;;;;5053234;28;20512;-79
2022/08/28 13:00:34;;;;;;;4.90;1.47;;;33.60;74.80;;;;;;5054593;28;20025;-79
2022/08/28 13:03:01;;;;;;;4.55;1.70;;;32.80;75.20;;;;;;5054468;28;20282;-79
2022/08/28 13:05:38;;;;;;;6.97;1.50;;;32.50;74.10;;;;;;5053331;28;20481;-79
2022/08/28 13:08:08;;;;;;;4.25;1.10;;;31.20;73.80;;;;;;5054513;28;20060;-79